Historyczne dane pomiarowe

Dodano dane terminowe – wersja testowa.

Dane z okresu 1951-2019

Wersja bazy: 1.34 [2019-03-16, lista zmian], aktualizacja planowana na 2019-04-15

Dane meteo z obszaru Polski uzyskane na podstawie danych udostępnionych przez Instytut Meteorologii i Gospodarki Wodnej – Państwowy Instytut Badawczy.

 

Wybierz Datę:    

       

TemperaturaWilgotnośćWiatrCiśnienieOpadyŚniegCzas trwania zjawisk
 Stacja t tx tn tng RH VA  wxwx mslp ppp RRR   cm mm wxwxwxwxwxwxwx
1983-08-14 15.7 19.1 10.6 9.3 83.3- 3.0 2.7---- 0.0------------
1983-08-13 15.5 19.9 12.8 12.5 87.5- 5.0 2.3---- 5.2------------
1983-08-12 18.4 23.6 14.6 13.5 90.5- 5.0 1.3---- 0.2------------
1983-08-11 18.1 21.1 16.1 15.4 96.0- 7.0 0.7---- 5.6------------
1983-08-10 18.1 25.1 13.6 12.3 86.5- 2.3 1.0---- 6.8------------
1983-08-09 17.9 24.6 14.6 13.6 88.8- 3.0 2.0---- 1.0------------
1983-08-08 18.2 24.6 14.6 13.3 88.5- 4.3 0.7---- 16.6------------
1983-08-07 17.9 23.1 14.6 14.3 93.0- 5.0 0.7---- 2.3------------
1983-08-06 14.6 20.6 8.1 6.4 87.5- 3.7 2.0---- 2.7------------
1983-08-05 13.7 16.6 10.8 11.3 89.0- 3.3 1.0---- 0.0------------
1983-08-04 13.8 22.6 11.1 14.3 99.0- 7.7 0.3---- 10.0------------
1983-08-03 21.2 27.6 16.1 15.4 88.3- 2.0 2.3---- 0.0------------
1983-08-02 20.4 27.6 12.6 10.8 88.8- 0.0 2.0---- 0.0------------
1983-08-01 17.8 25.1 10.1 8.3 77.8- 0.0 2.3---- 0.0------------
1983-07-31 17.6 22.6 12.1 10.3 83.0- 1.0 1.7---- 0.0------------
1983-07-30 18.1 21.6 14.6 12.8 82.5- 4.7 1.3---- 0.4------------
1983-07-29 19.8 24.6 15.1 12.8 83.0- 0.3 2.0---- 0.0------------
1983-07-28 22.2 27.1 17.1 10.8 78.5- 3.7 1.7---- 0.0------------
1983-07-27 23.1 28.6 17.1 15.4 78.3- 0.0 1.0---- 1.5------------
1983-07-26 19.8 25.6 14.1 11.8 77.5- 3.7 2.0---- 0.0------------
1983-07-25 15.1 20.1 10.6 12.3 81.8- 6.0 2.7---- 0.0------------
1983-07-24 15.9 20.1 13.1 12.3 83.3- 4.3 1.0---- 20.8------------
1983-07-23 14.3 18.6 11.6 10.8 95.8- 6.7 2.7---- 4.7------------
1983-07-22 13.8 17.1 10.6 9.3 75.3- 7.3 3.3---- 1.2------------
1983-07-21 12.2 16.6 9.6 9.4 80.8- 1.3 2.3---- 1.1------------
1983-07-20 17.9 25.5 12.6 12.3 83.8- 5.0 2.0---- 2.6------------
1983-07-19 24.0 33.9 13.1 11.3 70.0- 0.7 1.0---- 34.0------------
1983-07-18 21.7 28.1 13.1 11.8 76.3- 0.0 0.7---- 0.0------------
1983-07-17 21.3 26.1 16.6 14.3 77.0- 1.0 1.7---- 0.0------------
1983-07-16 21.3 27.6 11.6 10.8 73.3- 0.3 0.7---- 0.0------------
1983-07-15 19.1 24.1 14.6 14.3 72.0- 0.0 1.7---- 0.0------------
1983-07-14 17.5 20.6 15.6 14.3 91.8- 7.7 2.3---- 2.2------------
1983-07-13 18.1 22.6 15.1 14.3 85.3- 5.3 0.7---- 2.3------------
1983-07-12 16.9 23.6 15.1 14.8 92.3- 7.3 1.3---- 3.5------------
1983-07-11 19.2 24.6 15.6 15.4 79.3- 4.7 2.0---- 7.7------------
1983-07-10 20.7 28.6 15.6 14.3 71.8- 1.7 0.3---- 2.8------------
1983-07-09 21.1 27.6 13.6 12.3 63.5- 0.7 1.3---- 0.0------------
1983-07-08 19.9 28.1 10.1 11.8 55.0- 0.0 0.7---- 0.0------------
1983-07-07 21.1 28.2 13.6 12.3 57.8- 0.0 0.3---- 0.0------------
1983-07-06 21.0 27.6 12.1 10.8 61.8- 0.0 0.0---- 0.0------------
1983-07-05 20.5 26.6 12.1 11.3 65.0- 0.3 1.0---- 0.0------------
1983-07-04 19.3 25.1 11.1 10.3 61.0- 0.7 0.7---- 0.0------------
1983-07-03 18.8 23.5 14.5 13.7 69.3- 1.3 1.3---- 0.0------------
1983-07-02 18.0 22.6 15.4 14.6 90.0- 7.3 1.7---- 5.3------------
1983-07-01 18.6 26.1 11.5 10.2 79.0- 5.0 2.7---- 1.9------------
1983-06-30 16.4 22.4 8.8 7.4 72.0- 1.7 3.0---- 0.0------------
1983-06-29 16.2 20.6 13.0 12.8 63.3- 4.7 2.3---- 0.0------------
1983-06-28 17.3 20.5 16.1 14.8 90.8- 8.0 1.3---- 17.2------------
1983-06-27 19.6 26.9 11.8 9.8 72.8- 2.0 3.0---- 0.1------------
1983-06-26 19.4 23.1 16.8 14.8 77.8- 4.7 1.7---- 0.8------------
1983-06-25 21.0 26.5 15.2 13.1 60.3- 0.3 2.3---- 0.0------------
1983-06-24 17.1 25.7 7.3 5.6 65.3- 0.0 1.7---- 0.0------------
1983-06-23 13.6 19.6 6.1 4.5 62.5- 0.0 2.3---- 0.0------------
1983-06-22 13.6 19.5 8.9 7.7 56.8- 0.0 4.0---- 0.0------------
1983-06-21 19.0 24.5 14.9 14.6 67.0- 0.7 2.0---- 0.0------------
1983-06-20 18.7 22.6 16.0 15.5 82.5- 6.7 1.0---- 1.6------------
1983-06-19 17.9 22.5 12.7 12.3 87.0- 7.0 1.7---- 0.0------------
1983-06-18 12.8 14.1 12.0 11.7 94.8- 8.0 3.0---- 18.3------------
1983-06-17 12.6 15.6 10.1 9.2 75.5- 8.0 3.0---- 5.2------------
1983-06-16 12.2 15.4 10.6 11.1 93.3- 8.0 2.7---- 0.4------------
606.6 ms

 

Źródłem pochodzenia danych jest Instytut Meteorologii i Gospodarki Wodnej – Państwowy Instytut Badawczy. Dane Instytutu Meteorologii i Gospodarki Wodnej – Państwowego Instytutu Badawczego zostały przetworzone.

Dane źródłowe można odnaleźć na stronie https://dane.imgw.pl